sensor_id;sensor_type;location;lat;lon;timestamp;pressure;altitude;pressure_sealevel;temperature;humidity
58955;BME280;45815;52.334;5.024;2023-05-09T00:00:40;101799.69;;;15.20;100.00
58955;BME280;45815;52.334;5.024;2023-05-09T00:03:05;101789.97;;;15.19;100.00
58955;BME280;45815;52.334;5.024;2023-05-09T00:05:31;101786.34;;;15.14;100.00
58955;BME280;45815;52.334;5.024;2023-05-09T00:07:56;101792.59;;;15.19;100.00
58955;BME280;45815;52.334;5.024;2023-05-09T00:10:22;101789.03;;;15.17;100.00
58955;BME280;45815;52.334;5.024;2023-05-09T00:12:47;101782.88;;;15.15;100.00
58955;BME280;45815;52.334;5.024;2023-05-09T00:15:14;101768.66;;;15.10;100.00
58955;BME280;45815;52.334;5.024;2023-05-09T00:17:39;101779.34;;;15.16;100.00
58955;BME280;45815;52.334;5.024;2023-05-09T00:20:06;101780.25;;;15.18;100.00
58955;BME280;45815;52.334;5.024;2023-05-09T00:22:37;101777.56;;;15.16;100.00
58955;BME280;45815;52.334;5.024;2023-05-09T00:25:02;101771.44;;;15.17;100.00
58955;BME280;45815;52.334;5.024;2023-05-09T00:27:28;101772.31;;;15.18;100.00
58955;BME280;45815;52.334;5.024;2023-05-09T00:29:55;101764.38;;;15.18;100.00
58955;BME280;45815;52.334;5.024;2023-05-09T00:32:20;101757.34;;;15.18;100.00
58955;BME280;45815;52.334;5.024;2023-05-09T00:34:46;101754.66;;;15.15;100.00
58955;BME280;45815;52.334;5.024;2023-05-09T00:37:11;101757.38;;;15.20;100.00
58955;BME280;45815;52.334;5.024;2023-05-09T00:39:36;101754.72;;;15.20;100.00
58955;BME280;45815;52.334;5.024;2023-05-09T00:42:02;101756.47;;;15.18;100.00
58955;BME280;45815;52.334;5.024;2023-05-09T00:44:28;101752.03;;;15.18;100.00
58955;BME280;45815;52.334;5.024;2023-05-09T00:46:53;101751.16;;;15.18;100.00
58955;BME280;45815;52.334;5.024;2023-05-09T00:49:19;101755.56;;;15.19;100.00
58955;BME280;45815;52.334;5.024;2023-05-09T00:51:46;101749.44;;;15.20;100.00
58955;BME280;45815;52.334;5.024;2023-05-09T00:54:11;101745.84;;;15.15;100.00
58955;BME280;45815;52.334;5.024;2023-05-09T00:56:38;101745.91;;;15.19;100.00
58955;BME280;45815;52.334;5.024;2023-05-09T00:59:03;101743.19;;;15.16;100.00
58955;BME280;45815;52.334;5.024;2023-05-09T01:01:30;101738.75;;;15.14;100.00
58955;BME280;45815;52.334;5.024;2023-05-09T01:03:56;101742.22;;;15.10;100.00
58955;BME280;45815;52.334;5.024;2023-05-09T01:11:59;101725.50;;;15.11;100.00
58955;BME280;45815;52.334;5.024;2023-05-09T01:14:42;101715.69;;;15.04;100.00
58955;BME280;45815;52.334;5.024;2023-05-09T01:17:15;101716.63;;;15.07;100.00
58955;BME280;45815;52.334;5.024;2023-05-09T01:19:56;101721.97;;;15.10;100.00
58955;BME280;45815;52.334;5.024;2023-05-09T01:22:29;101715.75;;;15.07;100.00
58955;BME280;45815;52.334;5.024;2023-05-09T01:25:00;101718.41;;;15.08;100.00
58955;BME280;45815;52.334;5.024;2023-05-09T01:27:56;101710.34;;;15.01;100.00
58955;BME280;45815;52.334;5.024;2023-05-09T01:30:24;101708.69;;;15.06;100.00
58955;BME280;45815;52.334;5.024;2023-05-09T01:32:52;101705.13;;;15.04;100.00
58955;BME280;45815;52.334;5.024;2023-05-09T01:35:24;101705.06;;;15.01;100.00
58955;BME280;45815;52.334;5.024;2023-05-09T01:37:50;101703.31;;;14.99;100.00
58955;BME280;45815;52.334;5.024;2023-05-09T01:40:18;101706.81;;;14.98;100.00
58955;BME280;45815;52.334;5.024;2023-05-09T01:42:51;101705.84;;;14.92;100.00
58955;BME280;45815;52.334;5.024;2023-05-09T01:45:18;101701.44;;;14.92;100.00
58955;BME280;45815;52.334;5.024;2023-05-09T01:47:46;101690.84;;;14.92;100.00
58955;BME280;45815;52.334;5.024;2023-05-09T01:50:16;101686.44;;;14.91;100.00
58955;BME280;45815;52.334;5.024;2023-05-09T01:52:42;101688.25;;;14.94;100.00
58955;BME280;45815;52.334;5.024;2023-05-09T01:55:12;101685.59;;;14.94;100.00
58955;BME280;45815;52.334;5.024;2023-05-09T01:57:39;101670.59;;;14.91;100.00
58955;BME280;45815;52.334;5.024;2023-05-09T02:00:07;101673.22;;;14.91;100.00
58955;BME280;45815;52.334;5.024;2023-05-09T02:02:43;101666.16;;;14.90;100.00
58955;BME280;45815;52.334;5.024;2023-05-09T02:05:09;101666.16;;;14.90;100.00
58955;BME280;45815;52.334;5.024;2023-05-09T02:07:36;101662.66;;;14.91;100.00
58955;BME280;45815;52.334;5.024;2023-05-09T02:10:03;101665.31;;;14.93;100.00
58955;BME280;45815;52.334;5.024;2023-05-09T02:12:29;101665.31;;;14.91;100.00
58955;BME280;45815;52.334;5.024;2023-05-09T02:14:55;101667.94;;;14.91;100.00
58955;BME280;45815;52.334;5.024;2023-05-09T02:17:20;101656.38;;;14.86;100.00
58955;BME280;45815;52.334;5.024;2023-05-09T02:19:46;101664.38;;;14.91;100.00
58955;BME280;45815;52.334;5.024;2023-05-09T02:22:12;101662.63;;;14.90;100.00
58955;BME280;45815;52.334;5.024;2023-05-09T02:24:37;101660.88;;;14.90;100.00
58955;BME280;45815;52.334;5.024;2023-05-09T02:27:04;101666.16;;;14.90;100.00
58955;BME280;45815;52.334;5.024;2023-05-09T02:29:40;101655.50;;;14.86;100.00
58955;BME280;45815;52.334;5.024;2023-05-09T02:32:12;101638.66;;;14.79;100.00
58955;BME280;45815;52.334;5.024;2023-05-09T02:34:39;101654.69;;;14.90;100.00
58955;BME280;45815;52.334;5.024;2023-05-09T02:37:06;101657.38;;;14.91;100.00
58955;BME280;45815;52.334;5.024;2023-05-09T02:39:34;101657.38;;;14.91;100.00
58955;BME280;45815;52.334;5.024;2023-05-09T02:42:08;101649.34;;;14.85;100.00
58955;BME280;45815;52.334;5.024;2023-05-09T02:44:34;101645.81;;;14.86;100.00
58955;BME280;45815;52.334;5.024;2023-05-09T02:47:01;101639.69;;;14.87;100.00
58955;BME280;45815;52.334;5.024;2023-05-09T02:49:27;101645.78;;;14.83;100.00
58955;BME280;45815;52.334;5.024;2023-05-09T02:51:53;101641.41;;;14.85;100.00
58955;BME280;45815;52.334;5.024;2023-05-09T02:54:18;101641.38;;;14.82;100.00
58955;BME280;45815;52.334;5.024;2023-05-09T02:56:44;101636.09;;;14.82;100.00
58955;BME280;45815;52.334;5.024;2023-05-09T02:59:09;101629.03;;;14.83;100.00
58955;BME280;45815;52.334;5.024;2023-05-09T03:01:34;101623.72;;;14.81;100.00
58955;BME280;45815;52.334;5.024;2023-05-09T03:04:01;101621.97;;;14.80;100.00
58955;BME280;45815;52.334;5.024;2023-05-09T03:06:26;101624.56;;;14.78;100.00
58955;BME280;45815;52.334;5.024;2023-05-09T03:08:52;101629.00;;;14.81;100.00
58955;BME280;45815;52.334;5.024;2023-05-09T03:11:18;101624.66;;;14.83;100.00
58955;BME280;45815;52.334;5.024;2023-05-09T03:13:46;101627.28;;;14.83;100.00
58955;BME280;45815;52.334;5.024;2023-05-09T03:16:13;101611.44;;;14.83;100.00
58955;BME280;45815;52.334;5.024;2023-05-09T03:18:40;101609.66;;;14.82;100.00
58955;BME280;45815;52.334;5.024;2023-05-09T03:21:05;101608.78;;;14.83;100.00
58955;BME280;45815;52.334;5.024;2023-05-09T03:23:33;101607.88;;;14.81;100.00
58955;BME280;45815;52.334;5.024;2023-05-09T03:25:58;101605.19;;;14.78;100.00
58955;BME280;45815;52.334;5.024;2023-05-09T03:28:24;101597.22;;;14.75;100.00
58955;BME280;45815;52.334;5.024;2023-05-09T03:30:49;101592.78;;;14.74;100.00
58955;BME280;45815;52.334;5.024;2023-05-09T03:33:16;101589.25;;;14.72;100.00
58955;BME280;45815;52.334;5.024;2023-05-09T03:35:42;101577.75;;;14.70;100.00
58955;BME280;45815;52.334;5.024;2023-05-09T03:38:07;101583.03;;;14.70;100.00
58955;BME280;45815;52.334;5.024;2023-05-09T03:40:34;101575.09;;;14.67;100.00
58955;BME280;45815;52.334;5.024;2023-05-09T03:43:05;101571.56;;;14.68;100.00
58955;BME280;45815;52.334;5.024;2023-05-09T03:45:31;101565.41;;;14.66;100.00
58955;BME280;45815;52.334;5.024;2023-05-09T03:47:57;101560.16;;;14.72;100.00
58955;BME280;45815;52.334;5.024;2023-05-09T03:50:22;101564.66;;;14.77;100.00
58955;BME280;45815;52.334;5.024;2023-05-09T03:52:48;101564.69;;;14.81;100.00
58955;BME280;45815;52.334;5.024;2023-05-09T03:55:15;101560.31;;;14.84;100.00
58955;BME280;45815;52.334;5.024;2023-05-09T03:57:41;101569.13;;;14.83;100.00
58955;BME280;45815;52.334;5.024;2023-05-09T04:00:07;101567.31;;;14.79;100.00
58955;BME280;45815;52.334;5.024;2023-05-09T04:02:40;101565.53;;;14.75;100.00
58955;BME280;45815;52.334;5.024;2023-05-09T04:05:08;101563.72;;;14.74;100.00
58955;BME280;45815;52.334;5.024;2023-05-09T04:07:36;101562.88;;;14.75;100.00
58955;BME280;45815;52.334;5.024;2023-05-09T04:10:02;101554.00;;;14.71;100.00
58955;BME280;45815;52.334;5.024;2023-05-09T04:12:28;101550.41;;;14.68;100.00
58955;BME280;45815;52.334;5.024;2023-05-09T04:14:53;101553.94;;;14.67;100.00
58955;BME280;45815;52.334;5.024;2023-05-09T04:17:19;101555.72;;;14.68;100.00
58955;BME280;45815;52.334;5.024;2023-05-09T04:19:45;101549.53;;;14.66;100.00
58955;BME280;45815;52.334;5.024;2023-05-09T04:22:11;101555.72;;;14.68;100.00
58955;BME280;45815;52.334;5.024;2023-05-09T04:24:37;101554.81;;;14.66;100.00
58955;BME280;45815;52.334;5.024;2023-05-09T04:27:02;101556.59;;;14.67;100.00
58955;BME280;45815;52.334;5.024;2023-05-09T04:29:28;101555.72;;;14.66;100.00
58955;BME280;45815;52.334;5.024;2023-05-09T04:31:55;101547.75;;;14.65;100.00
58955;BME280;45815;52.334;5.024;2023-05-09T04:34:24;101546.91;;;14.67;100.00
58955;BME280;45815;52.334;5.024;2023-05-09T04:36:51;101545.13;;;14.66;100.00
58955;BME280;45815;52.334;5.024;2023-05-09T04:39:17;101541.63;;;14.67;100.00
58955;BME280;45815;52.334;5.024;2023-05-09T04:41:51;101543.34;;;14.65;100.00
58955;BME280;45815;52.334;5.024;2023-05-09T04:44:17;101534.56;;;14.66;100.00
58955;BME280;45815;52.334;5.024;2023-05-09T04:46:43;101539.91;;;14.72;100.00
58955;BME280;45815;52.334;5.024;2023-05-09T04:49:08;101534.72;;;14.78;100.00
58955;BME280;45815;52.334;5.024;2023-05-09T04:51:34;101533.00;;;14.81;100.00
58955;BME280;45815;52.334;5.024;2023-05-09T04:53:59;101533.03;;;14.82;100.00
58955;BME280;45815;52.334;5.024;2023-05-09T04:56:29;101528.63;;;14.83;100.00
58955;BME280;45815;52.334;5.024;2023-05-09T04:58:55;101529.47;;;14.80;100.00
58955;BME280;45815;52.334;5.024;2023-05-09T05:01:20;101528.56;;;14.78;100.00
58955;BME280;45815;52.334;5.024;2023-05-09T05:03:46;101517.13;;;14.81;100.00
58955;BME280;45815;52.334;5.024;2023-05-09T05:06:11;101525.09;;;14.82;100.00
58955;BME280;45815;52.334;5.024;2023-05-09T05:08:39;101516.28;;;14.83;100.00
58955;BME280;45815;52.334;5.024;2023-05-09T05:11:04;101508.38;;;14.85;100.00
58955;BME280;45815;52.334;5.024;2023-05-09T05:13:30;101512.81;;;14.87;100.00
58955;BME280;45815;52.334;5.024;2023-05-09T05:15:58;101506.63;;;14.88;100.00
58955;BME280;45815;52.334;5.024;2023-05-09T05:18:24;101511.91;;;14.85;100.00
58955;BME280;45815;52.334;5.024;2023-05-09T05:20:49;101496.94;;;14.86;100.00
58955;BME280;45815;52.334;5.024;2023-05-09T05:23:15;101495.22;;;14.89;100.00
58955;BME280;45815;52.334;5.024;2023-05-09T05:25:40;101487.25;;;14.88;100.00
58955;BME280;45815;52.334;5.024;2023-05-09T05:28:06;101488.19;;;14.91;100.00
58955;BME280;45815;52.334;5.024;2023-05-09T05:30:31;101486.44;;;14.92;100.00
58955;BME280;45815;52.334;5.024;2023-05-09T05:32:57;101482.94;;;14.94;100.00
58955;BME280;45815;52.334;5.024;2023-05-09T05:35:24;101486.47;;;14.98;100.00
58955;BME280;45815;52.334;5.024;2023-05-09T05:37:51;101475.06;;;15.01;100.00
58955;BME280;45815;52.334;5.024;2023-05-09T05:40:17;101482.16;;;15.03;100.00
58955;BME280;45815;52.334;5.024;2023-05-09T05:42:46;101470.69;;;15.03;100.00
58955;BME280;45815;52.334;5.024;2023-05-09T05:45:11;101466.31;;;15.03;100.00
58955;BME280;45815;52.334;5.024;2023-05-09T05:47:40;101468.06;;;15.04;100.00
58955;BME280;45815;52.334;5.024;2023-05-09T05:50:06;101460.06;;;14.99;100.00
58955;BME280;45815;52.334;5.024;2023-05-09T05:52:35;101464.44;;;14.94;100.00
58955;BME280;45815;52.334;5.024;2023-05-09T05:55:01;101467.94;;;14.93;100.00
58955;BME280;45815;52.334;5.024;2023-05-09T05:57:26;101465.34;;;14.96;100.00
58955;BME280;45815;52.334;5.024;2023-05-09T05:59:52;101464.47;;;14.97;100.00
58955;BME280;45815;52.334;5.024;2023-05-09T06:02:17;101460.06;;;14.96;100.00
58955;BME280;45815;52.334;5.024;2023-05-09T06:04:44;101431.72;;;14.86;100.00
58955;BME280;45815;52.334;5.024;2023-05-09T06:07:10;101450.38;;;14.98;100.00
58955;BME280;45815;52.334;5.024;2023-05-09T06:09:37;101446.03;;;15.04;100.00
58955;BME280;45815;52.334;5.024;2023-05-09T06:12:02;101449.59;;;15.06;100.00
58955;BME280;45815;52.334;5.024;2023-05-09T06:14:28;101454.88;;;15.06;100.00
58955;BME280;45815;52.334;5.024;2023-05-09T06:16:54;101432.81;;;15.05;100.00
58955;BME280;45815;52.334;5.024;2023-05-09T06:19:19;101437.25;;;15.06;100.00
58955;BME280;45815;52.334;5.024;2023-05-09T06:21:45;101436.34;;;15.06;100.00
58955;BME280;45815;52.334;5.024;2023-05-09T06:24:11;101442.50;;;15.05;100.00
58955;BME280;45815;52.334;5.024;2023-05-09T06:26:37;101437.19;;;15.02;100.00
58955;BME280;45815;52.334;5.024;2023-05-09T06:29:03;101429.28;;;15.03;100.00
58955;BME280;45815;52.334;5.024;2023-05-09T06:31:30;101427.50;;;15.05;100.00
58955;BME280;45815;52.334;5.024;2023-05-09T06:33:55;101427.56;;;15.08;100.00
58955;BME280;45815;52.334;5.024;2023-05-09T06:36:21;101427.53;;;15.07;100.00
58955;BME280;45815;52.334;5.024;2023-05-09T06:38:46;101412.44;;;14.95;100.00
58955;BME280;45815;52.334;5.024;2023-05-09T06:41:12;101425.72;;;15.03;100.00
58955;BME280;45815;52.334;5.024;2023-05-09T06:43:37;101410.75;;;15.02;100.00
58955;BME280;45815;52.334;5.024;2023-05-09T06:46:02;101419.59;;;15.04;100.00
58955;BME280;45815;52.334;5.024;2023-05-09T06:48:28;101417.84;;;15.06;100.00
58955;BME280;45815;52.334;5.024;2023-05-09T06:50:53;101419.59;;;15.07;100.00
58955;BME280;45815;52.334;5.024;2023-05-09T06:53:19;101419.59;;;15.04;100.00
58955;BME280;45815;52.334;5.024;2023-05-09T06:55:44;101414.25;;;15.01;100.00
58955;BME280;45815;52.334;5.024;2023-05-09T06:58:10;101411.66;;;15.04;100.00
58955;BME280;45815;52.334;5.024;2023-05-09T07:00:36;101409.00;;;15.04;100.00
58955;BME280;45815;52.334;5.024;2023-05-09T07:03:01;101400.16;;;14.98;100.00
58955;BME280;45815;52.334;5.024;2023-05-09T07:05:27;101405.47;;;15.02;100.00
58955;BME280;45815;52.334;5.024;2023-05-09T07:07:52;101396.56;;;14.93;100.00
58955;BME280;45815;52.334;5.024;2023-05-09T07:10:20;101399.25;;;14.96;100.00
58955;BME280;45815;52.334;5.024;2023-05-09T07:12:48;101399.25;;;14.98;100.00
58955;BME280;45815;52.334;5.024;2023-05-09T07:15:14;101398.38;;;14.97;100.00
58955;BME280;45815;52.334;5.024;2023-05-09T07:17:40;101385.97;;;14.93;100.00
58955;BME280;45815;52.334;5.024;2023-05-09T07:20:06;101401.84;;;14.93;100.00
58955;BME280;45815;52.334;5.024;2023-05-09T07:22:31;101387.78;;;14.94;100.00
58955;BME280;45815;52.334;5.024;2023-05-09T07:24:56;101385.97;;;14.93;100.00
58955;BME280;45815;52.334;5.024;2023-05-09T07:27:22;101382.50;;;14.97;100.00
58955;BME280;45815;52.334;5.024;2023-05-09T07:29:47;101373.63;;;14.89;100.00
58955;BME280;45815;52.334;5.024;2023-05-09T07:32:20;101323.13;;;14.59;100.00
58955;BME280;45815;52.334;5.024;2023-05-09T07:34:46;101382.50;;;14.94;100.00
58955;BME280;45815;52.334;5.024;2023-05-09T07:37:11;101373.69;;;14.94;100.00
58955;BME280;45815;52.334;5.024;2023-05-09T07:39:36;101370.09;;;14.90;100.00
58955;BME280;45815;52.334;5.024;2023-05-09T07:42:02;101374.50;;;14.90;100.00
58955;BME280;45815;52.334;5.024;2023-05-09T07:44:27;101368.38;;;14.92;100.00
58955;BME280;45815;52.334;5.024;2023-05-09T07:46:53;101368.41;;;14.94;100.00
58955;BME280;45815;52.334;5.024;2023-05-09T07:49:20;101375.41;;;14.90;100.00
58955;BME280;45815;52.334;5.024;2023-05-09T07:51:45;101366.63;;;14.91;100.00
58955;BME280;45815;52.334;5.024;2023-05-09T07:54:11;101366.63;;;14.94;100.00
58955;BME280;45815;52.334;5.024;2023-05-09T07:56:36;101341.00;;;14.89;100.00
58955;BME280;45815;52.334;5.024;2023-05-09T07:59:02;101359.69;;;15.06;100.00
58955;BME280;45815;52.334;5.024;2023-05-09T08:01:27;101350.06;;;15.14;100.00
58955;BME280;45815;52.334;5.024;2023-05-09T08:03:53;101347.41;;;15.17;100.00
58955;BME280;45815;52.334;5.024;2023-05-09T08:06:18;101335.06;;;15.13;100.00
58955;BME280;45815;52.334;5.024;2023-05-09T08:08:44;101339.50;;;15.18;100.00
58955;BME280;45815;52.334;5.024;2023-05-09T08:11:10;101343.03;;;15.16;100.00
58955;BME280;45815;52.334;5.024;2023-05-09T08:13:35;101328.91;;;15.17;100.00
58955;BME280;45815;52.334;5.024;2023-05-09T08:16:00;101327.19;;;15.20;100.00
58955;BME280;45815;52.334;5.024;2023-05-09T08:18:26;101334.25;;;15.23;100.00
58955;BME280;45815;52.334;5.024;2023-05-09T08:20:51;101319.28;;;15.22;100.00
58955;BME280;45815;52.334;5.024;2023-05-09T08:23:17;101325.47;;;15.24;100.00
58955;BME280;45815;52.334;5.024;2023-05-09T08:25:42;101323.66;;;15.18;100.00
58955;BME280;45815;52.334;5.024;2023-05-09T08:28:08;101317.47;;;15.15;100.00
58955;BME280;45815;52.334;5.024;2023-05-09T08:30:33;101319.16;;;15.08;100.00
58955;BME280;45815;52.334;5.024;2023-05-09T08:32:58;101305.06;;;15.08;100.00
58955;BME280;45815;52.334;5.024;2023-05-09T08:35:24;101309.41;;;15.03;100.00
58955;BME280;45815;52.334;5.024;2023-05-09T08:37:49;101307.72;;;15.08;100.00
58955;BME280;45815;52.334;5.024;2023-05-09T08:40:15;101294.44;;;15.05;100.00
58955;BME280;45815;52.334;5.024;2023-05-09T08:42:42;101301.53;;;15.09;100.00
58955;BME280;45815;52.334;5.024;2023-05-09T08:45:11;101298.03;;;15.08;100.00
58955;BME280;45815;52.334;5.024;2023-05-09T08:47:39;101299.81;;;15.14;100.00
58955;BME280;45815;52.334;5.024;2023-05-09T08:50:06;101284.78;;;15.10;100.00
58955;BME280;45815;52.334;5.024;2023-05-09T08:52:33;101290.97;;;15.09;100.00
58955;BME280;45815;52.334;5.024;2023-05-09T08:55:00;101289.22;;;15.11;100.00
58955;BME280;45815;52.334;5.024;2023-05-09T08:57:26;101287.44;;;15.08;100.00
58955;BME280;45815;52.334;5.024;2023-05-09T08:59:53;101286.56;;;15.11;100.00
58955;BME280;45815;52.334;5.024;2023-05-09T09:02:20;101283.94;;;15.14;100.00
58955;BME280;45815;52.334;5.024;2023-05-09T09:04:46;101277.78;;;15.13;100.00
58955;BME280;45815;52.334;5.024;2023-05-09T09:07:12;101276.00;;;15.14;100.00
58955;BME280;45815;52.334;5.024;2023-05-09T09:09:44;101266.28;;;15.08;100.00
58955;BME280;45815;52.334;5.024;2023-05-09T09:12:10;101266.34;;;15.17;100.00
58955;BME280;45815;52.334;5.024;2023-05-09T09:14:38;101260.16;;;15.14;100.00
58955;BME280;45815;52.334;5.024;2023-05-09T09:17:07;101261.03;;;15.13;100.00
58955;BME280;45815;52.334;5.024;2023-05-09T09:19:38;101271.63;;;15.19;100.00
58955;BME280;45815;52.334;5.024;2023-05-09T09:22:05;101267.22;;;15.18;100.00
58955;BME280;45815;52.334;5.024;2023-05-09T09:24:33;101267.22;;;15.18;100.00
58955;BME280;45815;52.334;5.024;2023-05-09T09:27:03;101261.06;;;15.19;100.00
58955;BME280;45815;52.334;5.024;2023-05-09T09:29:29;101255.78;;;15.20;100.00
58955;BME280;45815;52.334;5.024;2023-05-09T09:31:56;101246.13;;;15.23;100.00
58955;BME280;45815;52.334;5.024;2023-05-09T09:34:22;101246.13;;;15.26;100.00
58955;BME280;45815;52.334;5.024;2023-05-09T09:36:48;101253.22;;;15.31;100.00
58955;BME280;45815;52.334;5.024;2023-05-09T09:39:14;101249.69;;;15.35;100.00
58955;BME280;45815;52.334;5.024;2023-05-09T09:41:40;101256.78;;;15.38;100.00
58955;BME280;45815;52.334;5.024;2023-05-09T09:49:16;101245.34;;;15.39;100.00
58955;BME280;45815;52.334;5.024;2023-05-09T09:51:42;101245.34;;;15.40;100.00
58955;BME280;45815;52.334;5.024;2023-05-09T09:54:11;101240.03;;;15.37;100.00
58955;BME280;45815;52.334;5.024;2023-05-09T09:56:38;101238.28;;;15.41;100.00
58955;BME280;45815;52.334;5.024;2023-05-09T09:59:24;101240.88;;;15.35;100.00
58955;BME280;45815;52.334;5.024;2023-05-09T10:02:03;101235.56;;;15.29;100.00
58955;BME280;45815;52.334;5.024;2023-05-09T10:04:34;101235.56;;;15.29;100.00
58955;BME280;45815;52.334;5.024;2023-05-09T10:07:01;101232.03;;;15.28;100.00
58955;BME280;45815;52.334;5.024;2023-05-09T10:09:30;101230.28;;;15.27;100.00
58955;BME280;45815;52.334;5.024;2023-05-09T10:12:01;101234.66;;;15.25;100.00
58955;BME280;45815;52.334;5.024;2023-05-09T10:14:28;101232.94;;;15.30;100.00
58955;BME280;45815;52.334;5.024;2023-05-09T10:16:55;101235.56;;;15.30;100.00
58955;BME280;45815;52.334;5.024;2023-05-09T10:19:22;101224.13;;;15.34;100.00
58955;BME280;45815;52.334;5.024;2023-05-09T10:21:54;101210.84;;;15.22;100.00
58955;BME280;45815;52.334;5.024;2023-05-09T10:24:28;101231.19;;;15.32;100.00
58955;BME280;45815;52.334;5.024;2023-05-09T10:27:03;101230.28;;;15.33;100.00
58955;BME280;45815;52.334;5.024;2023-05-09T10:29:36;101225.91;;;15.35;100.00
58955;BME280;45815;52.334;5.024;2023-05-09T10:32:16;101222.34;;;15.24;100.00
58955;BME280;45815;52.334;5.024;2023-05-09T10:34:46;101220.56;;;15.26;100.00
58955;BME280;45815;52.334;5.024;2023-05-09T10:37:14;101213.56;;;15.31;100.00
58955;BME280;45815;52.334;5.024;2023-05-09T10:39:41;101203.81;;;15.23;100.00
58955;BME280;45815;52.334;5.024;2023-05-09T10:42:08;101210.00;;;15.29;100.00
58955;BME280;45815;52.334;5.024;2023-05-09T10:44:34;101210.03;;;15.32;100.00
58955;BME280;45815;52.334;5.024;2023-05-09T10:47:00;101206.53;;;15.36;100.00
58955;BME280;45815;52.334;5.024;2023-05-09T10:49:26;101197.69;;;15.34;100.00
58955;BME280;45815;52.334;5.024;2023-05-09T10:51:52;101191.53;;;15.34;100.00
58955;BME280;45815;52.334;5.024;2023-05-09T10:54:28;101193.31;;;15.36;100.00
58955;BME280;45815;52.334;5.024;2023-05-09T10:56:54;101178.28;;;15.35;100.00
58955;BME280;45815;52.334;5.024;2023-05-09T10:59:36;101183.56;;;15.35;100.00
58955;BME280;45815;52.334;5.024;2023-05-09T11:02:03;101183.63;;;15.41;100.00
58955;BME280;45815;52.334;5.024;2023-05-09T11:04:30;101181.88;;;15.47;100.00
58955;BME280;45815;52.334;5.024;2023-05-09T11:07:00;101181.00;;;15.51;100.00
58955;BME280;45815;52.334;5.024;2023-05-09T11:09:34;101171.28;;;15.47;100.00
58955;BME280;45815;52.334;5.024;2023-05-09T11:12:13;101173.06;;;15.48;100.00
58955;BME280;45815;52.334;5.024;2023-05-09T11:14:42;101168.66;;;15.50;100.00
58955;BME280;45815;52.334;5.024;2023-05-09T11:22:18;101156.28;;;15.41;100.00
58955;BME280;45815;52.334;5.024;2023-05-09T11:24:49;101155.41;;;15.44;100.00
58955;BME280;45815;52.334;5.024;2023-05-09T11:27:19;101158.06;;;15.50;100.00
58955;BME280;45815;52.334;5.024;2023-05-09T11:29:50;101154.56;;;15.52;100.00
58955;BME280;45815;52.334;5.024;2023-05-09T11:32:16;101148.41;;;15.56;100.00
58955;BME280;45815;52.334;5.024;2023-05-09T11:34:43;101150.19;;;15.62;100.00
58955;BME280;45815;52.334;5.024;2023-05-09T11:37:10;101147.56;;;15.67;100.00
58955;BME280;45815;52.334;5.024;2023-05-09T11:39:54;101138.72;;;15.57;100.00
58955;BME280;45815;52.334;5.024;2023-05-09T11:42:22;101131.66;;;15.59;100.00
58955;BME280;45815;52.334;5.024;2023-05-09T11:44:48;101129.03;;;15.65;100.00
58955;BME280;45815;52.334;5.024;2023-05-09T11:47:15;101136.97;;;15.67;100.00
58955;BME280;45815;52.334;5.024;2023-05-09T11:49:43;101139.63;;;15.62;100.00
58955;BME280;45815;52.334;5.024;2023-05-09T11:52:09;101130.78;;;15.60;100.00
58955;BME280;45815;52.334;5.024;2023-05-09T11:54:37;101131.66;;;15.65;100.00
58955;BME280;45815;52.334;5.024;2023-05-09T11:57:03;101126.38;;;15.60;100.00
58955;BME280;45815;52.334;5.024;2023-05-09T11:59:29;101131.66;;;15.56;100.00
58955;BME280;45815;52.334;5.024;2023-05-09T12:01:54;101125.50;;;15.66;100.00
58955;BME280;45815;52.334;5.024;2023-05-09T12:04:20;101119.38;;;15.72;100.00
58955;BME280;45815;52.334;5.024;2023-05-09T12:06:48;101122.91;;;15.74;100.00
58955;BME280;45815;52.334;5.024;2023-05-09T12:09:13;101112.31;;;15.77;100.00
58955;BME280;45815;52.334;5.024;2023-05-09T12:11:47;101099.06;;;15.69;100.00
58955;BME280;45815;52.334;5.024;2023-05-09T12:14:28;101114.09;;;15.75;100.00
58955;BME280;45815;52.334;5.024;2023-05-09T12:16:54;101117.59;;;15.75;100.00
58955;BME280;45815;52.334;5.024;2023-05-09T12:19:21;101113.19;;;15.77;100.00
58955;BME280;45815;52.334;5.024;2023-05-09T12:21:47;101105.28;;;15.76;100.00
58955;BME280;45815;52.334;5.024;2023-05-09T12:24:12;101099.09;;;15.72;100.00
58955;BME280;45815;52.334;5.024;2023-05-09T12:26:38;101107.91;;;15.71;100.00
58955;BME280;45815;52.334;5.024;2023-05-09T12:29:04;101111.41;;;15.67;100.00
58955;BME280;45815;52.334;5.024;2023-05-09T12:31:30;101109.59;;;15.63;100.00
58955;BME280;45815;52.334;5.024;2023-05-09T12:33:56;101107.84;;;15.68;100.00
58955;BME280;45815;52.334;5.024;2023-05-09T12:36:21;101106.09;;;15.67;100.00
58955;BME280;45815;52.334;5.024;2023-05-09T12:38:55;101100.88;;;15.73;100.00
58955;BME280;45815;52.334;5.024;2023-05-09T12:41:20;101101.75;;;15.78;100.00
58955;BME280;45815;52.334;5.024;2023-05-09T12:43:48;101107.94;;;15.83;100.00
58955;BME280;45815;52.334;5.024;2023-05-09T12:46:17;101099.97;;;15.71;100.00
58955;BME280;45815;52.334;5.024;2023-05-09T12:48:44;101103.50;;;15.73;100.00
58955;BME280;45815;52.334;5.024;2023-05-09T12:51:09;101095.53;;;15.70;100.00
58955;BME280;45815;52.334;5.024;2023-05-09T12:53:39;101087.59;;;15.69;100.00
58955;BME280;45815;52.334;5.024;2023-05-09T12:56:13;101085.78;;;15.58;100.00